sensor_id;sensor_type;location;lat;lon;timestamp;P1;durP1;ratioP1;P2;durP2;ratioP2
12367;SDS011;6248;49.812;6.620;2022-12-08T00:01:09;19.77;;;12.00;;
12367;SDS011;6248;49.812;6.620;2022-12-08T00:03:36;19.00;;;11.00;;
12367;SDS011;6248;49.812;6.620;2022-12-08T00:06:04;20.17;;;11.70;;
12367;SDS011;6248;49.812;6.620;2022-12-08T00:08:54;18.70;;;11.00;;
12367;SDS011;6248;49.812;6.620;2022-12-08T00:11:39;17.73;;;10.93;;
12367;SDS011;6248;49.812;6.620;2022-12-08T00:14:08;21.93;;;11.63;;
12367;SDS011;6248;49.812;6.620;2022-12-08T00:16:35;22.47;;;12.27;;
12367;SDS011;6248;49.812;6.620;2022-12-08T00:19:02;21.53;;;12.87;;
12367;SDS011;6248;49.812;6.620;2022-12-08T00:21:29;20.17;;;12.43;;
12367;SDS011;6248;49.812;6.620;2022-12-08T00:23:56;23.87;;;12.30;;
12367;SDS011;6248;49.812;6.620;2022-12-08T00:26:23;24.70;;;13.57;;
12367;SDS011;6248;49.812;6.620;2022-12-08T00:28:50;24.27;;;12.77;;
12367;SDS011;6248;49.812;6.620;2022-12-08T00:31:19;22.13;;;12.67;;
12367;SDS011;6248;49.812;6.620;2022-12-08T00:33:46;20.80;;;12.87;;
12367;SDS011;6248;49.812;6.620;2022-12-08T00:36:13;23.07;;;13.43;;
12367;SDS011;6248;49.812;6.620;2022-12-08T00:38:41;20.33;;;12.20;;
12367;SDS011;6248;49.812;6.620;2022-12-08T00:41:11;20.03;;;11.73;;
12367;SDS011;6248;49.812;6.620;2022-12-08T00:43:38;19.53;;;11.67;;
12367;SDS011;6248;49.812;6.620;2022-12-08T00:46:05;23.87;;;12.53;;
12367;SDS011;6248;49.812;6.620;2022-12-08T00:48:34;20.73;;;11.83;;
12367;SDS011;6248;49.812;6.620;2022-12-08T00:51:01;22.57;;;11.90;;
12367;SDS011;6248;49.812;6.620;2022-12-08T00:53:29;20.50;;;12.30;;
12367;SDS011;6248;49.812;6.620;2022-12-08T00:55:56;21.27;;;11.23;;
12367;SDS011;6248;49.812;6.620;2022-12-08T00:58:23;20.67;;;12.50;;
12367;SDS011;6248;49.812;6.620;2022-12-08T01:00:50;22.63;;;11.77;;
12367;SDS011;6248;49.812;6.620;2022-12-08T01:03:17;18.50;;;11.97;;
12367;SDS011;6248;49.812;6.620;2022-12-08T01:05:46;16.20;;;10.50;;
12367;SDS011;6248;49.812;6.620;2022-12-08T01:08:13;17.87;;;11.13;;
12367;SDS011;6248;49.812;6.620;2022-12-08T01:10:40;23.53;;;12.63;;
12367;SDS011;6248;49.812;6.620;2022-12-08T01:13:07;22.00;;;13.20;;
12367;SDS011;6248;49.812;6.620;2022-12-08T01:15:35;20.00;;;12.57;;
12367;SDS011;6248;49.812;6.620;2022-12-08T01:18:03;22.70;;;12.90;;
12367;SDS011;6248;49.812;6.620;2022-12-08T01:20:30;23.50;;;13.03;;
12367;SDS011;6248;49.812;6.620;2022-12-08T01:22:58;23.03;;;12.87;;
12367;SDS011;6248;49.812;6.620;2022-12-08T01:25:25;22.03;;;13.43;;
12367;SDS011;6248;49.812;6.620;2022-12-08T01:27:52;22.73;;;13.57;;
12367;SDS011;6248;49.812;6.620;2022-12-08T01:30:20;21.63;;;12.60;;
12367;SDS011;6248;49.812;6.620;2022-12-08T01:32:47;23.80;;;13.43;;
12367;SDS011;6248;49.812;6.620;2022-12-08T01:35:14;20.67;;;11.83;;
12367;SDS011;6248;49.812;6.620;2022-12-08T01:37:41;25.70;;;13.73;;
12367;SDS011;6248;49.812;6.620;2022-12-08T01:40:10;21.83;;;12.23;;
12367;SDS011;6248;49.812;6.620;2022-12-08T01:42:37;20.17;;;11.30;;
12367;SDS011;6248;49.812;6.620;2022-12-08T01:45:05;23.93;;;12.70;;
12367;SDS011;6248;49.812;6.620;2022-12-08T01:47:35;21.90;;;12.30;;
12367;SDS011;6248;49.812;6.620;2022-12-08T01:50:03;21.60;;;11.97;;
12367;SDS011;6248;49.812;6.620;2022-12-08T01:52:32;21.10;;;12.80;;
12367;SDS011;6248;49.812;6.620;2022-12-08T01:55:02;23.07;;;12.50;;
12367;SDS011;6248;49.812;6.620;2022-12-08T01:57:32;22.17;;;12.20;;
12367;SDS011;6248;49.812;6.620;2022-12-08T02:00:04;25.23;;;13.00;;
12367;SDS011;6248;49.812;6.620;2022-12-08T02:02:33;24.63;;;13.07;;
12367;SDS011;6248;49.812;6.620;2022-12-08T02:05:06;21.77;;;12.53;;
12367;SDS011;6248;49.812;6.620;2022-12-08T02:07:34;22.57;;;13.40;;
12367;SDS011;6248;49.812;6.620;2022-12-08T02:10:01;18.77;;;12.30;;
12367;SDS011;6248;49.812;6.620;2022-12-08T02:12:28;25.70;;;12.97;;
12367;SDS011;6248;49.812;6.620;2022-12-08T02:14:57;20.23;;;11.37;;
12367;SDS011;6248;49.812;6.620;2022-12-08T02:17:29;22.00;;;12.77;;
12367;SDS011;6248;49.812;6.620;2022-12-08T02:22:45;18.43;;;11.57;;
12367;SDS011;6248;49.812;6.620;2022-12-08T02:25:17;17.20;;;10.77;;
12367;SDS011;6248;49.812;6.620;2022-12-08T02:27:50;18.40;;;10.80;;
12367;SDS011;6248;49.812;6.620;2022-12-08T02:30:25;18.10;;;11.40;;
12367;SDS011;6248;49.812;6.620;2022-12-08T02:33:09;18.40;;;10.77;;
12367;SDS011;6248;49.812;6.620;2022-12-08T02:35:46;18.70;;;11.03;;
12367;SDS011;6248;49.812;6.620;2022-12-08T02:38:17;17.43;;;11.10;;
12367;SDS011;6248;49.812;6.620;2022-12-08T02:40:48;19.13;;;10.90;;
12367;SDS011;6248;49.812;6.620;2022-12-08T02:43:19;18.83;;;11.37;;
12367;SDS011;6248;49.812;6.620;2022-12-08T02:45:49;17.77;;;11.27;;
12367;SDS011;6248;49.812;6.620;2022-12-08T02:48:18;18.10;;;10.43;;
12367;SDS011;6248;49.812;6.620;2022-12-08T02:50:47;18.40;;;11.50;;
12367;SDS011;6248;49.812;6.620;2022-12-08T02:53:14;21.00;;;11.93;;
12367;SDS011;6248;49.812;6.620;2022-12-08T02:55:43;17.13;;;10.90;;
12367;SDS011;6248;49.812;6.620;2022-12-08T02:58:22;17.57;;;11.03;;
12367;SDS011;6248;49.812;6.620;2022-12-08T03:00:56;16.97;;;11.17;;
12367;SDS011;6248;49.812;6.620;2022-12-08T03:03:27;17.70;;;11.23;;
12367;SDS011;6248;49.812;6.620;2022-12-08T03:06:02;16.10;;;10.03;;
12367;SDS011;6248;49.812;6.620;2022-12-08T03:08:33;17.93;;;10.47;;
12367;SDS011;6248;49.812;6.620;2022-12-08T03:11:02;16.63;;;9.60;;
12367;SDS011;6248;49.812;6.620;2022-12-08T03:13:31;19.57;;;10.23;;
12367;SDS011;6248;49.812;6.620;2022-12-08T03:16:00;17.03;;;10.40;;
12367;SDS011;6248;49.812;6.620;2022-12-08T03:18:29;17.00;;;9.87;;
12367;SDS011;6248;49.812;6.620;2022-12-08T03:20:57;17.47;;;10.27;;
12367;SDS011;6248;49.812;6.620;2022-12-08T03:23:26;14.77;;;9.67;;
12367;SDS011;6248;49.812;6.620;2022-12-08T03:25:55;17.00;;;9.60;;
12367;SDS011;6248;49.812;6.620;2022-12-08T03:28:24;14.00;;;9.33;;
12367;SDS011;6248;49.812;6.620;2022-12-08T03:30:51;15.73;;;9.37;;
12367;SDS011;6248;49.812;6.620;2022-12-08T03:33:22;15.63;;;9.23;;
12367;SDS011;6248;49.812;6.620;2022-12-08T03:35:50;13.00;;;9.40;;
12367;SDS011;6248;49.812;6.620;2022-12-08T03:38:17;15.07;;;8.77;;
12367;SDS011;6248;49.812;6.620;2022-12-08T03:40:46;13.47;;;8.70;;
12367;SDS011;6248;49.812;6.620;2022-12-08T03:43:34;14.70;;;9.20;;
12367;SDS011;6248;49.812;6.620;2022-12-08T03:46:01;14.63;;;8.90;;
12367;SDS011;6248;49.812;6.620;2022-12-08T03:48:28;13.90;;;8.07;;
12367;SDS011;6248;49.812;6.620;2022-12-08T03:50:55;11.00;;;7.63;;
12367;SDS011;6248;49.812;6.620;2022-12-08T03:53:22;12.23;;;8.03;;
12367;SDS011;6248;49.812;6.620;2022-12-08T03:55:51;12.53;;;7.53;;
12367;SDS011;6248;49.812;6.620;2022-12-08T03:58:18;10.43;;;7.10;;
12367;SDS011;6248;49.812;6.620;2022-12-08T04:00:45;8.50;;;6.53;;
12367;SDS011;6248;49.812;6.620;2022-12-08T04:03:12;7.87;;;6.00;;
12367;SDS011;6248;49.812;6.620;2022-12-08T04:05:39;6.97;;;5.67;;
12367;SDS011;6248;49.812;6.620;2022-12-08T04:08:07;7.83;;;5.60;;
12367;SDS011;6248;49.812;6.620;2022-12-08T04:10:34;9.00;;;5.43;;
12367;SDS011;6248;49.812;6.620;2022-12-08T04:13:02;7.17;;;5.33;;
12367;SDS011;6248;49.812;6.620;2022-12-08T04:15:29;6.37;;;5.20;;
12367;SDS011;6248;49.812;6.620;2022-12-08T04:17:57;7.03;;;5.17;;
12367;SDS011;6248;49.812;6.620;2022-12-08T04:20:24;6.67;;;4.90;;
12367;SDS011;6248;49.812;6.620;2022-12-08T04:22:51;6.93;;;5.23;;
12367;SDS011;6248;49.812;6.620;2022-12-08T04:25:18;6.57;;;4.87;;
12367;SDS011;6248;49.812;6.620;2022-12-08T04:27:45;6.40;;;4.83;;
12367;SDS011;6248;49.812;6.620;2022-12-08T04:30:13;5.93;;;5.23;;
12367;SDS011;6248;49.812;6.620;2022-12-08T04:32:41;8.00;;;5.30;;
12367;SDS011;6248;49.812;6.620;2022-12-08T04:35:08;8.03;;;4.90;;
12367;SDS011;6248;49.812;6.620;2022-12-08T04:37:35;6.03;;;5.20;;
12367;SDS011;6248;49.812;6.620;2022-12-08T04:40:02;7.93;;;5.43;;
12367;SDS011;6248;49.812;6.620;2022-12-08T04:42:30;6.50;;;5.00;;
12367;SDS011;6248;49.812;6.620;2022-12-08T04:44:57;8.63;;;5.30;;
12367;SDS011;6248;49.812;6.620;2022-12-08T04:47:25;16.50;;;11.23;;
12367;SDS011;6248;49.812;6.620;2022-12-08T04:49:52;10.27;;;7.30;;
12367;SDS011;6248;49.812;6.620;2022-12-08T04:52:20;7.97;;;6.67;;
12367;SDS011;6248;49.812;6.620;2022-12-08T04:54:47;9.03;;;6.17;;
12367;SDS011;6248;49.812;6.620;2022-12-08T04:57:14;7.47;;;5.30;;
12367;SDS011;6248;49.812;6.620;2022-12-08T04:59:41;7.83;;;5.70;;
12367;SDS011;6248;49.812;6.620;2022-12-08T05:02:08;7.93;;;5.60;;
12367;SDS011;6248;49.812;6.620;2022-12-08T05:04:38;7.53;;;5.27;;
12367;SDS011;6248;49.812;6.620;2022-12-08T05:07:05;7.70;;;5.30;;
12367;SDS011;6248;49.812;6.620;2022-12-08T05:09:32;6.23;;;5.37;;
12367;SDS011;6248;49.812;6.620;2022-12-08T05:12:00;6.87;;;5.30;;
12367;SDS011;6248;49.812;6.620;2022-12-08T05:14:27;6.07;;;4.50;;
12367;SDS011;6248;49.812;6.620;2022-12-08T05:16:54;6.40;;;4.90;;
12367;SDS011;6248;49.812;6.620;2022-12-08T05:19:21;5.73;;;4.27;;
12367;SDS011;6248;49.812;6.620;2022-12-08T05:21:50;7.07;;;5.20;;
12367;SDS011;6248;49.812;6.620;2022-12-08T05:24:17;6.20;;;5.20;;
12367;SDS011;6248;49.812;6.620;2022-12-08T05:26:44;7.80;;;4.63;;
12367;SDS011;6248;49.812;6.620;2022-12-08T05:29:11;5.67;;;4.63;;
12367;SDS011;6248;49.812;6.620;2022-12-08T05:31:39;5.60;;;4.70;;
12367;SDS011;6248;49.812;6.620;2022-12-08T05:34:06;6.90;;;4.83;;
12367;SDS011;6248;49.812;6.620;2022-12-08T05:36:33;8.13;;;4.83;;
12367;SDS011;6248;49.812;6.620;2022-12-08T05:39:01;8.17;;;4.77;;
12367;SDS011;6248;49.812;6.620;2022-12-08T05:41:29;6.93;;;4.77;;
12367;SDS011;6248;49.812;6.620;2022-12-08T05:43:56;4.77;;;4.20;;
12367;SDS011;6248;49.812;6.620;2022-12-08T05:46:23;4.73;;;4.20;;
12367;SDS011;6248;49.812;6.620;2022-12-08T05:48:50;6.07;;;4.60;;
12367;SDS011;6248;49.812;6.620;2022-12-08T05:51:18;6.67;;;4.70;;
12367;SDS011;6248;49.812;6.620;2022-12-08T05:53:45;7.07;;;4.50;;
12367;SDS011;6248;49.812;6.620;2022-12-08T05:56:14;5.40;;;4.30;;
12367;SDS011;6248;49.812;6.620;2022-12-08T05:58:42;4.57;;;3.90;;
12367;SDS011;6248;49.812;6.620;2022-12-08T06:01:16;5.13;;;4.00;;
12367;SDS011;6248;49.812;6.620;2022-12-08T06:03:44;7.10;;;4.57;;
12367;SDS011;6248;49.812;6.620;2022-12-08T06:06:11;4.93;;;4.00;;
12367;SDS011;6248;49.812;6.620;2022-12-08T06:08:38;6.50;;;4.23;;
12367;SDS011;6248;49.812;6.620;2022-12-08T06:11:05;5.37;;;4.33;;
12367;SDS011;6248;49.812;6.620;2022-12-08T06:13:34;4.50;;;4.00;;
12367;SDS011;6248;49.812;6.620;2022-12-08T06:16:02;6.83;;;4.13;;
12367;SDS011;6248;49.812;6.620;2022-12-08T06:18:30;5.53;;;3.93;;
12367;SDS011;6248;49.812;6.620;2022-12-08T06:21:00;5.47;;;4.07;;
12367;SDS011;6248;49.812;6.620;2022-12-08T06:23:28;5.17;;;3.97;;
12367;SDS011;6248;49.812;6.620;2022-12-08T06:25:58;4.33;;;3.93;;
12367;SDS011;6248;49.812;6.620;2022-12-08T06:28:26;5.30;;;3.60;;
12367;SDS011;6248;49.812;6.620;2022-12-08T06:30:55;5.83;;;4.50;;
12367;SDS011;6248;49.812;6.620;2022-12-08T06:33:22;4.57;;;4.03;;
12367;SDS011;6248;49.812;6.620;2022-12-08T06:35:49;7.87;;;4.30;;
12367;SDS011;6248;49.812;6.620;2022-12-08T06:38:17;5.03;;;4.17;;
12367;SDS011;6248;49.812;6.620;2022-12-08T06:40:44;5.23;;;4.30;;
12367;SDS011;6248;49.812;6.620;2022-12-08T06:43:18;5.60;;;4.60;;
12367;SDS011;6248;49.812;6.620;2022-12-08T06:45:45;6.23;;;4.70;;
12367;SDS011;6248;49.812;6.620;2022-12-08T06:48:14;6.10;;;4.90;;
12367;SDS011;6248;49.812;6.620;2022-12-08T06:50:41;6.90;;;4.90;;
12367;SDS011;6248;49.812;6.620;2022-12-08T06:53:09;6.43;;;5.00;;
12367;SDS011;6248;49.812;6.620;2022-12-08T06:55:37;6.87;;;4.77;;
12367;SDS011;6248;49.812;6.620;2022-12-08T06:58:04;5.93;;;5.30;;
12367;SDS011;6248;49.812;6.620;2022-12-08T07:00:31;6.37;;;5.00;;
12367;SDS011;6248;49.812;6.620;2022-12-08T07:02:58;6.80;;;5.40;;
12367;SDS011;6248;49.812;6.620;2022-12-08T07:05:27;7.87;;;5.20;;
12367;SDS011;6248;49.812;6.620;2022-12-08T07:07:54;6.67;;;5.70;;
12367;SDS011;6248;49.812;6.620;2022-12-08T07:10:22;8.50;;;5.97;;
12367;SDS011;6248;49.812;6.620;2022-12-08T07:12:49;8.83;;;7.03;;
12367;SDS011;6248;49.812;6.620;2022-12-08T07:15:17;10.10;;;6.40;;
12367;SDS011;6248;49.812;6.620;2022-12-08T07:17:44;8.53;;;5.53;;
12367;SDS011;6248;49.812;6.620;2022-12-08T07:20:13;6.57;;;5.70;;
12367;SDS011;6248;49.812;6.620;2022-12-08T07:22:46;8.10;;;5.87;;
12367;SDS011;6248;49.812;6.620;2022-12-08T07:25:14;7.07;;;5.23;;
12367;SDS011;6248;49.812;6.620;2022-12-08T07:27:41;9.80;;;6.00;;
12367;SDS011;6248;49.812;6.620;2022-12-08T07:30:12;8.03;;;6.40;;
12367;SDS011;6248;49.812;6.620;2022-12-08T07:32:40;7.87;;;6.40;;
12367;SDS011;6248;49.812;6.620;2022-12-08T07:35:09;7.00;;;5.83;;
12367;SDS011;6248;49.812;6.620;2022-12-08T07:37:36;9.60;;;7.13;;
12367;SDS011;6248;49.812;6.620;2022-12-08T07:40:06;8.40;;;6.17;;
12367;SDS011;6248;49.812;6.620;2022-12-08T07:42:34;9.03;;;6.47;;
12367;SDS011;6248;49.812;6.620;2022-12-08T07:45:01;10.87;;;5.80;;
12367;SDS011;6248;49.812;6.620;2022-12-08T07:47:29;7.97;;;6.57;;
12367;SDS011;6248;49.812;6.620;2022-12-08T07:49:56;8.80;;;6.97;;
12367;SDS011;6248;49.812;6.620;2022-12-08T07:52:24;13.30;;;7.23;;
12367;SDS011;6248;49.812;6.620;2022-12-08T07:54:51;8.67;;;6.37;;
12367;SDS011;6248;49.812;6.620;2022-12-08T07:57:19;9.33;;;7.17;;
12367;SDS011;6248;49.812;6.620;2022-12-08T07:59:47;9.47;;;7.53;;
12367;SDS011;6248;49.812;6.620;2022-12-08T08:02:15;9.60;;;6.60;;
12367;SDS011;6248;49.812;6.620;2022-12-08T08:04:42;11.13;;;7.67;;
12367;SDS011;6248;49.812;6.620;2022-12-08T08:07:09;8.03;;;6.37;;
12367;SDS011;6248;49.812;6.620;2022-12-08T08:09:37;11.83;;;7.47;;
12367;SDS011;6248;49.812;6.620;2022-12-08T08:12:05;8.53;;;7.47;;
12367;SDS011;6248;49.812;6.620;2022-12-08T08:14:33;9.00;;;7.00;;
12367;SDS011;6248;49.812;6.620;2022-12-08T08:17:00;10.00;;;6.73;;
12367;SDS011;6248;49.812;6.620;2022-12-08T08:19:28;9.93;;;6.73;;
12367;SDS011;6248;49.812;6.620;2022-12-08T08:21:55;8.90;;;6.73;;
12367;SDS011;6248;49.812;6.620;2022-12-08T08:24:22;9.13;;;7.43;;
12367;SDS011;6248;49.812;6.620;2022-12-08T08:26:50;7.33;;;6.43;;
12367;SDS011;6248;49.812;6.620;2022-12-08T08:29:19;8.23;;;7.00;;
12367;SDS011;6248;49.812;6.620;2022-12-08T08:31:48;10.17;;;7.20;;
12367;SDS011;6248;49.812;6.620;2022-12-08T08:34:15;9.03;;;7.20;;
12367;SDS011;6248;49.812;6.620;2022-12-08T08:36:42;10.00;;;7.47;;
12367;SDS011;6248;49.812;6.620;2022-12-08T08:39:10;8.93;;;7.03;;
12367;SDS011;6248;49.812;6.620;2022-12-08T08:41:37;8.87;;;6.93;;
12367;SDS011;6248;49.812;6.620;2022-12-08T08:44:05;10.27;;;7.83;;
12367;SDS011;6248;49.812;6.620;2022-12-08T08:46:32;8.27;;;6.93;;
12367;SDS011;6248;49.812;6.620;2022-12-08T08:49:01;17.80;;;11.47;;
12367;SDS011;6248;49.812;6.620;2022-12-08T08:51:29;11.83;;;9.07;;
12367;SDS011;6248;49.812;6.620;2022-12-08T08:53:56;12.30;;;7.80;;
12367;SDS011;6248;49.812;6.620;2022-12-08T08:56:24;9.20;;;7.53;;
12367;SDS011;6248;49.812;6.620;2022-12-08T08:58:51;10.97;;;6.80;;
12367;SDS011;6248;49.812;6.620;2022-12-08T09:01:20;8.90;;;7.07;;
12367;SDS011;6248;49.812;6.620;2022-12-08T09:03:47;10.57;;;7.63;;
12367;SDS011;6248;49.812;6.620;2022-12-08T09:06:16;10.70;;;7.07;;
12367;SDS011;6248;49.812;6.620;2022-12-08T09:08:44;8.20;;;6.87;;
12367;SDS011;6248;49.812;6.620;2022-12-08T09:11:12;10.47;;;7.40;;
12367;SDS011;6248;49.812;6.620;2022-12-08T09:13:42;9.67;;;7.13;;
12367;SDS011;6248;49.812;6.620;2022-12-08T09:16:10;10.20;;;7.50;;
12367;SDS011;6248;49.812;6.620;2022-12-08T09:18:40;10.87;;;7.70;;
12367;SDS011;6248;49.812;6.620;2022-12-08T09:21:08;10.90;;;7.50;;
12367;SDS011;6248;49.812;6.620;2022-12-08T09:23:38;9.30;;;7.63;;
12367;SDS011;6248;49.812;6.620;2022-12-08T09:26:05;10.20;;;7.97;;
12367;SDS011;6248;49.812;6.620;2022-12-08T09:28:34;11.63;;;8.60;;
12367;SDS011;6248;49.812;6.620;2022-12-08T09:31:01;9.93;;;7.93;;
12367;SDS011;6248;49.812;6.620;2022-12-08T09:33:29;9.33;;;7.90;;
12367;SDS011;6248;49.812;6.620;2022-12-08T09:36:00;9.03;;;7.73;;
12367;SDS011;6248;49.812;6.620;2022-12-08T09:38:28;11.67;;;7.90;;
12367;SDS011;6248;49.812;6.620;2022-12-08T09:40:57;12.37;;;8.70;;
12367;SDS011;6248;49.812;6.620;2022-12-08T09:43:33;8.77;;;7.87;;
12367;SDS011;6248;49.812;6.620;2022-12-08T09:46:06;10.77;;;7.90;;
12367;SDS011;6248;49.812;6.620;2022-12-08T09:48:36;9.60;;;7.43;;
12367;SDS011;6248;49.812;6.620;2022-12-08T09:51:07;9.80;;;7.87;;
12367;SDS011;6248;49.812;6.620;2022-12-08T09:53:35;11.33;;;8.40;;
12367;SDS011;6248;49.812;6.620;2022-12-08T09:56:04;9.43;;;7.67;;
12367;SDS011;6248;49.812;6.620;2022-12-08T09:58:38;9.03;;;7.40;;
12367;SDS011;6248;49.812;6.620;2022-12-08T10:01:10;9.87;;;7.07;;
12367;SDS011;6248;49.812;6.620;2022-12-08T10:03:38;9.63;;;6.90;;
12367;SDS011;6248;49.812;6.620;2022-12-08T10:06:06;8.40;;;6.57;;
12367;SDS011;6248;49.812;6.620;2022-12-08T10:08:40;8.30;;;6.37;;
12367;SDS011;6248;49.812;6.620;2022-12-08T10:11:12;11.67;;;8.40;;
12367;SDS011;6248;49.812;6.620;2022-12-08T10:13:45;11.20;;;8.50;;
12367;SDS011;6248;49.812;6.620;2022-12-08T10:16:17;9.50;;;7.30;;
12367;SDS011;6248;49.812;6.620;2022-12-08T10:18:46;10.37;;;7.57;;
12367;SDS011;6248;49.812;6.620;2022-12-08T10:21:19;15.40;;;7.60;;
12367;SDS011;6248;49.812;6.620;2022-12-08T10:23:50;9.20;;;7.17;;
12367;SDS011;6248;49.812;6.620;2022-12-08T10:26:20;9.60;;;7.27;;
12367;SDS011;6248;49.812;6.620;2022-12-08T10:28:47;9.10;;;7.43;;
12367;SDS011;6248;49.812;6.620;2022-12-08T10:31:15;8.33;;;7.30;;
12367;SDS011;6248;49.812;6.620;2022-12-08T10:33:43;10.73;;;6.87;;
12367;SDS011;6248;49.812;6.620;2022-12-08T10:36:11;10.20;;;7.57;;
12367;SDS011;6248;49.812;6.620;2022-12-08T10:38:38;9.93;;;7.57;;
12367;SDS011;6248;49.812;6.620;2022-12-08T10:41:08;9.70;;;6.83;;
12367;SDS011;6248;49.812;6.620;2022-12-08T10:43:41;9.27;;;7.87;;
12367;SDS011;6248;49.812;6.620;2022-12-08T10:46:10;9.60;;;7.60;;
12367;SDS011;6248;49.812;6.620;2022-12-08T10:48:46;10.03;;;7.20;;
12367;SDS011;6248;49.812;6.620;2022-12-08T10:51:20;9.20;;;7.57;;
12367;SDS011;6248;49.812;6.620;2022-12-08T10:53:48;10.13;;;8.07;;
12367;SDS011;6248;49.812;6.620;2022-12-08T10:56:15;9.00;;;7.70;;
12367;SDS011;6248;49.812;6.620;2022-12-08T10:58:44;10.57;;;7.63;;
12367;SDS011;6248;49.812;6.620;2022-12-08T11:01:12;11.33;;;8.30;;
12367;SDS011;6248;49.812;6.620;2022-12-08T11:03:43;7.93;;;6.87;;
12367;SDS011;6248;49.812;6.620;2022-12-08T11:06:11;11.90;;;8.50;;
12367;SDS011;6248;49.812;6.620;2022-12-08T11:08:45;8.43;;;7.30;;
12367;SDS011;6248;49.812;6.620;2022-12-08T11:11:13;9.57;;;7.67;;
12367;SDS011;6248;49.812;6.620;2022-12-08T11:13:40;12.03;;;8.10;;
12367;SDS011;6248;49.812;6.620;2022-12-08T11:16:09;11.13;;;8.23;;
12367;SDS011;6248;49.812;6.620;2022-12-08T11:18:38;9.93;;;7.67;;
12367;SDS011;6248;49.812;6.620;2022-12-08T11:21:06;9.83;;;8.07;;
12367;SDS011;6248;49.812;6.620;2022-12-08T11:23:35;9.00;;;7.60;;
12367;SDS011;6248;49.812;6.620;2022-12-08T11:26:04;10.00;;;7.93;;
12367;SDS011;6248;49.812;6.620;2022-12-08T11:28:33;11.50;;;8.00;;
12367;SDS011;6248;49.812;6.620;2022-12-08T11:31:02;10.53;;;8.20;;
12367;SDS011;6248;49.812;6.620;2022-12-08T11:33:31;11.03;;;7.77;;
12367;SDS011;6248;49.812;6.620;2022-12-08T11:35:59;9.50;;;7.63;;
12367;SDS011;6248;49.812;6.620;2022-12-08T11:38:28;9.37;;;7.80;;
12367;SDS011;6248;49.812;6.620;2022-12-08T11:40:56;9.67;;;7.87;;
12367;SDS011;6248;49.812;6.620;2022-12-08T11:43:26;9.20;;;7.67;;
12367;SDS011;6248;49.812;6.620;2022-12-08T11:45:57;11.30;;;7.57;;
12367;SDS011;6248;49.812;6.620;2022-12-08T11:48:26;9.47;;;7.20;;
12367;SDS011;6248;49.812;6.620;2022-12-08T11:50:56;8.50;;;7.67;;
12367;SDS011;6248;49.812;6.620;2022-12-08T11:53:26;9.73;;;7.07;;
12367;SDS011;6248;49.812;6.620;2022-12-08T11:55:56;13.83;;;7.03;;
12367;SDS011;6248;49.812;6.620;2022-12-08T11:58:25;10.40;;;8.07;;
12367;SDS011;6248;49.812;6.620;2022-12-08T12:00:52;11.80;;;8.00;;
12367;SDS011;6248;49.812;6.620;2022-12-08T12:03:21;10.10;;;8.10;;
12367;SDS011;6248;49.812;6.620;2022-12-08T12:05:57;10.33;;;7.70;;
12367;SDS011;6248;49.812;6.620;2022-12-08T12:08:32;8.93;;;7.47;;
12367;SDS011;6248;49.812;6.620;2022-12-08T12:11:05;13.20;;;8.60;;
12367;SDS011;6248;49.812;6.620;2022-12-08T12:13:40;11.40;;;8.20;;
12367;SDS011;6248;49.812;6.620;2022-12-08T12:16:21;10.57;;;8.40;;
12367;SDS011;6248;49.812;6.620;2022-12-08T12:18:51;10.47;;;7.67;;
12367;SDS011;6248;49.812;6.620;2022-12-08T12:21:21;9.17;;;7.33;;
12367;SDS011;6248;49.812;6.620;2022-12-08T12:23:51;12.20;;;8.00;;
12367;SDS011;6248;49.812;6.620;2022-12-08T12:26:20;8.73;;;7.47;;
12367;SDS011;6248;49.812;6.620;2022-12-08T12:28:48;9.17;;;7.77;;
12367;SDS011;6248;49.812;6.620;2022-12-08T12:31:18;10.33;;;7.97;;
12367;SDS011;6248;49.812;6.620;2022-12-08T12:33:47;9.23;;;7.00;;
12367;SDS011;6248;49.812;6.620;2022-12-08T12:36:15;8.93;;;7.53;;
12367;SDS011;6248;49.812;6.620;2022-12-08T12:38:44;9.73;;;6.93;;
12367;SDS011;6248;49.812;6.620;2022-12-08T12:41:30;8.27;;;6.97;;
12367;SDS011;6248;49.812;6.620;2022-12-08T12:46:56;10.83;;;6.97;;
12367;SDS011;6248;49.812;6.620;2022-12-08T12:57:48;8.43;;;6.70;;
12367;SDS011;6248;49.812;6.620;2022-12-08T13:00:16;8.60;;;6.70;;
12367;SDS011;6248;49.812;6.620;2022-12-08T13:02:44;9.13;;;7.37;;
12367;SDS011;6248;49.812;6.620;2022-12-08T13:05:13;7.83;;;6.90;;
12367;SDS011;6248;49.812;6.620;2022-12-08T13:07:42;6.80;;;6.03;;
12367;SDS011;6248;49.812;6.620;2022-12-08T13:10:14;10.53;;;8.73;;
12367;SDS011;6248;49.812;6.620;2022-12-08T13:12:42;8.13;;;6.80;;
12367;SDS011;6248;49.812;6.620;2022-12-08T13:15:15;9.27;;;7.30;;
12367;SDS011;6248;49.812;6.620;2022-12-08T13:17:44;11.77;;;7.57;;
12367;SDS011;6248;49.812;6.620;2022-12-08T13:20:16;9.37;;;6.43;;
12367;SDS011;6248;49.812;6.620;2022-12-08T13:22:45;10.07;;;6.70;;
12367;SDS011;6248;49.812;6.620;2022-12-08T13:28:00;8.43;;;6.80;;
12367;SDS011;6248;49.812;6.620;2022-12-08T13:30:43;9.43;;;7.17;;
12367;SDS011;6248;49.812;6.620;2022-12-08T13:33:14;8.07;;;6.67;;
12367;SDS011;6248;49.812;6.620;2022-12-08T13:35:43;10.20;;;6.63;;
12367;SDS011;6248;49.812;6.620;2022-12-08T13:38:13;9.33;;;6.80;;
12367;SDS011;6248;49.812;6.620;2022-12-08T13:40:41;10.67;;;6.50;;
12367;SDS011;6248;49.812;6.620;2022-12-08T13:43:11;7.97;;;6.23;;
12367;SDS011;6248;49.812;6.620;2022-12-08T13:45:43;7.77;;;6.00;;
12367;SDS011;6248;49.812;6.620;2022-12-08T13:48:12;13.43;;;6.70;;
12367;SDS011;6248;49.812;6.620;2022-12-08T13:50:41;7.50;;;6.70;;
12367;SDS011;6248;49.812;6.620;2022-12-08T13:53:10;9.23;;;6.87;;
12367;SDS011;6248;49.812;6.620;2022-12-08T13:55:39;11.13;;;6.57;;
12367;SDS011;6248;49.812;6.620;2022-12-08T13:58:15;10.27;;;6.60;;
12367;SDS011;6248;49.812;6.620;2022-12-08T14:00:43;7.60;;;6.23;;
12367;SDS011;6248;49.812;6.620;2022-12-08T14:03:18;7.57;;;6.70;;
12367;SDS011;6248;49.812;6.620;2022-12-08T14:05:46;8.27;;;6.93;;
12367;SDS011;6248;49.812;6.620;2022-12-08T14:08:16;9.77;;;7.83;;
12367;SDS011;6248;49.812;6.620;2022-12-08T14:10:44;8.53;;;6.50;;
12367;SDS011;6248;49.812;6.620;2022-12-08T14:13:13;11.27;;;7.13;;
12367;SDS011;6248;49.812;6.620;2022-12-08T14:15:40;10.37;;;7.27;;
12367;SDS011;6248;49.812;6.620;2022-12-08T14:18:20;8.77;;;6.10;;
12367;SDS011;6248;49.812;6.620;2022-12-08T14:20:57;8.13;;;5.90;;
12367;SDS011;6248;49.812;6.620;2022-12-08T14:23:24;7.10;;;5.90;;
12367;SDS011;6248;49.812;6.620;2022-12-08T14:25:51;9.63;;;5.60;;
12367;SDS011;6248;49.812;6.620;2022-12-08T14:28:19;10.17;;;7.03;;
12367;SDS011;6248;49.812;6.620;2022-12-08T14:30:47;8.57;;;6.20;;
12367;SDS011;6248;49.812;6.620;2022-12-08T14:33:15;7.50;;;6.50;;
12367;SDS011;6248;49.812;6.620;2022-12-08T14:35:46;9.93;;;6.03;;
12367;SDS011;6248;49.812;6.620;2022-12-08T14:38:16;7.20;;;5.40;;
12367;SDS011;6248;49.812;6.620;2022-12-08T14:40:43;6.27;;;4.77;;
12367;SDS011;6248;49.812;6.620;2022-12-08T14:43:12;5.23;;;4.67;;
12367;SDS011;6248;49.812;6.620;2022-12-08T14:45:49;5.20;;;4.70;;
12367;SDS011;6248;49.812;6.620;2022-12-08T14:48:22;6.13;;;4.70;;
12367;SDS011;6248;49.812;6.620;2022-12-08T14:51:03;4.83;;;4.37;;
12367;SDS011;6248;49.812;6.620;2022-12-08T14:53:34;17.03;;;11.03;;
12367;SDS011;6248;49.812;6.620;2022-12-08T14:56:05;12.87;;;7.70;;
12367;SDS011;6248;49.812;6.620;2022-12-08T14:58:33;10.00;;;6.53;;
12367;SDS011;6248;49.812;6.620;2022-12-08T15:01:01;5.33;;;4.70;;
12367;SDS011;6248;49.812;6.620;2022-12-08T15:03:34;5.13;;;3.80;;
12367;SDS011;6248;49.812;6.620;2022-12-08T15:06:03;3.93;;;3.50;;
12367;SDS011;6248;49.812;6.620;2022-12-08T15:08:31;4.10;;;3.27;;
12367;SDS011;6248;49.812;6.620;2022-12-08T15:11:10;5.00;;;3.80;;
12367;SDS011;6248;49.812;6.620;2022-12-08T15:13:43;5.00;;;3.77;;
12367;SDS011;6248;49.812;6.620;2022-12-08T15:16:22;7.17;;;4.63;;
12367;SDS011;6248;49.812;6.620;2022-12-08T15:18:54;13.03;;;5.40;;
12367;SDS011;6248;49.812;6.620;2022-12-08T15:21:28;4.97;;;4.43;;